Isola Bianca — ICLD — position and weather

sailwx.info

Track history (hours):
 
Tides and Currents Weather Stations Pressure Air Temp Water Temp Dewpoint Dewpoint Depression Visibility Wind Speed Wind Dir Waves Ship Positions

Isola Bianca

Last reported at 2018-Feb-18 18:52 UTC. Time now 2018-Feb-19 06:24 UTC.
Position N 40°31' W 009°57'.

Length 183 m; draft 8 m.

Type: Ship. MMSI: 247245200.

Date/timePositionNaut miles runAvg speedWind from/ knotsBaromVisibWave heightAir tempDewpointWater temp
2018-Feb-18 18:52N 40°31' W 009°57'511.7
2018-Feb-18 18:26N 40°25' W 009°57'5011.7
2018-Feb-18 14:11N 39°36' W 009°57'211.9
2018-Feb-18 14:00N 39°34' W 009°57'711.5
2018-Feb-18 13:25N 39°27' W 009°57'511.3
2018-Feb-18 13:00N 39°22' W 009°57'611.9
2018-Feb-18 12:30N 39°16' W 009°56'611.6
2018-Feb-18 12:00N 39°11' W 009°56'611.6
2018-Feb-18 11:30N 39°05' W 009°56'611.5
2018-Feb-18 11:01N 38°59' W 009°57'611.7
2018-Feb-18 10:30N 38°53' W 009°57'611.8
2018-Feb-18 10:00N 38°47' W 009°57'611.8
2018-Feb-18 09:30N 38°41' W 009°57'611.9
2018-Feb-18 09:00N 38°36' W 009°55'611.9
2018-Feb-18 08:30N 38°30' W 009°53'612.6
2018-Feb-18 08:00N 38°24' W 009°51'612.2
2018-Feb-18 07:30N 38°18' W 009°49'612.0
2018-Feb-18 07:00N 38°12' W 009°47'612.1
2018-Feb-18 06:30N 38°06' W 009°45'612.0
2018-Feb-18 06:01N 38°00' W 009°43'611.9
2018-Feb-18 05:30N 37°54' W 009°42'611.8
2018-Feb-18 05:00N 37°49' W 009°41'811.9
2018-Feb-18 04:22N 37°41' W 009°40'412.0
2018-Feb-18 04:00N 37°37' W 009°39'  
2018-Feb-15 03:56N 31°60' W 010°37'612.5
2018-Feb-15 03:29N 31°55' W 010°41'1112.3
2018-Feb-15 02:35N 31°46' W 010°48'212.4
2018-Feb-15 02:28N 31°44' W 010°49'712.4
2018-Feb-15 01:55N 31°39' W 010°53'5512.3
2018-Feb-14 21:29N 30°54' W 011°29'11812.5
2018-Feb-14 12:01N 29°15' W 012°44'012.2
2018-Feb-14 12:00N 29°15' W 012°44'612.7
2018-Feb-14 11:30N 29°09' W 012°46'712.6
2018-Feb-14 10:58N 29°02' W 012°49'612.5
2018-Feb-14 10:30N 28°57' W 012°53'712.6
2018-Feb-14 09:59N 28°52' W 012°57'1712.8
2018-Feb-14 08:39N 28°37' W 013°07'213.5
2018-Feb-14 08:30N 28°36' W 013°09'612.9
2018-Feb-14 08:00N 28°31' W 013°13'813.1
2018-Feb-14 07:25N 28°24' W 013°18'613.2
2018-Feb-14 06:59N 28°19' W 013°21'613.1
2018-Feb-14 06:30N 28°14' W 013°25'713.1
2018-Feb-14 06:00N 28°08' W 013°29'712.9
2018-Feb-14 05:29N 28°03' W 013°33'612.7
2018-Feb-14 04:59N 27°58' W 013°37'612.7
2018-Feb-14 04:29N 27°53' W 013°42'712.7
2018-Feb-14 03:54N 27°48' W 013°49'1112.6
2018-Feb-14 03:03N 27°41' W 013°57'612.5
2018-Feb-14 02:34N 27°36' W 014°02'212.5
2018-Feb-14 02:26N 27°35' W 014°03'512.6
2018-Feb-14 02:00N 27°31' W 014°07'10212.8
2018-Feb-13 18:03N 26°20' W 015°29'112.9
2018-Feb-13 18:00N 26°20' W 015°30'613.0
2018-Feb-13 17:30N 26°15' W 015°34'712.9
2018-Feb-13 17:00N 26°11' W 015°40'612.6
2018-Feb-13 16:30N 26°06' W 015°45'612.4
2018-Feb-13 16:00N 26°01' W 015°50'713.4
2018-Feb-13 15:31N 25°57' W 015°55'713.0
2018-Feb-13 15:01N 25°52' W 015°60'612.9
2018-Feb-13 14:30N 25°48' W 016°05'  
Track history (hours):
 
Tides and Currents Weather Stations Pressure Air Temp Water Temp Dewpoint Dewpoint Depression Visibility Wind Speed Wind Dir Waves Ship Positions

Isola Bianca

Last reported at 2018-Feb-18 18:52 UTC. Time now 2018-Feb-19 06:24 UTC.
Position N 40°31' W 009°57'.

Length 183 m; draft 8 m.

Type: Ship. MMSI: 247245200.

Date/timePositionNaut miles runAvg speedWind from/ knotsBaromVisibWave heightAir tempDewpointWater temp
2018-Feb-18 18:52N 40°31' W 009°57'511.7
2018-Feb-18 18:26N 40°25' W 009°57'5011.7
2018-Feb-18 14:11N 39°36' W 009°57'211.9
2018-Feb-18 14:00N 39°34' W 009°57'711.5
2018-Feb-18 13:25N 39°27' W 009°57'511.3
2018-Feb-18 13:00N 39°22' W 009°57'611.9
2018-Feb-18 12:30N 39°16' W 009°56'611.6
2018-Feb-18 12:00N 39°11' W 009°56'611.6
2018-Feb-18 11:30N 39°05' W 009°56'611.5
2018-Feb-18 11:01N 38°59' W 009°57'611.7
2018-Feb-18 10:30N 38°53' W 009°57'611.8
2018-Feb-18 10:00N 38°47' W 009°57'611.8
2018-Feb-18 09:30N 38°41' W 009°57'611.9
2018-Feb-18 09:00N 38°36' W 009°55'611.9
2018-Feb-18 08:30N 38°30' W 009°53'612.6
2018-Feb-18 08:00N 38°24' W 009°51'612.2
2018-Feb-18 07:30N 38°18' W 009°49'612.0
2018-Feb-18 07:00N 38°12' W 009°47'612.1
2018-Feb-18 06:30N 38°06' W 009°45'612.0
2018-Feb-18 06:01N 38°00' W 009°43'611.9
2018-Feb-18 05:30N 37°54' W 009°42'611.8
2018-Feb-18 05:00N 37°49' W 009°41'811.9
2018-Feb-18 04:22N 37°41' W 009°40'412.0
2018-Feb-18 04:00N 37°37' W 009°39'  
2018-Feb-15 03:56N 31°60' W 010°37'612.5
2018-Feb-15 03:29N 31°55' W 010°41'1112.3
2018-Feb-15 02:35N 31°46' W 010°48'212.4
2018-Feb-15 02:28N 31°44' W 010°49'712.4
2018-Feb-15 01:55N 31°39' W 010°53'5512.3
2018-Feb-14 21:29N 30°54' W 011°29'11812.5
2018-Feb-14 12:01N 29°15' W 012°44'012.2
2018-Feb-14 12:00N 29°15' W 012°44'612.7
2018-Feb-14 11:30N 29°09' W 012°46'712.6
2018-Feb-14 10:58N 29°02' W 012°49'612.5
2018-Feb-14 10:30N 28°57' W 012°53'712.6
2018-Feb-14 09:59N 28°52' W 012°57'1712.8
2018-Feb-14 08:39N 28°37' W 013°07'213.5
2018-Feb-14 08:30N 28°36' W 013°09'612.9
2018-Feb-14 08:00N 28°31' W 013°13'813.1
2018-Feb-14 07:25N 28°24' W 013°18'613.2
2018-Feb-14 06:59N 28°19' W 013°21'613.1
2018-Feb-14 06:30N 28°14' W 013°25'713.1
2018-Feb-14 06:00N 28°08' W 013°29'712.9
2018-Feb-14 05:29N 28°03' W 013°33'612.7
2018-Feb-14 04:59N 27°58' W 013°37'612.7
2018-Feb-14 04:29N 27°53' W 013°42'712.7
2018-Feb-14 03:54N 27°48' W 013°49'1112.6
2018-Feb-14 03:03N 27°41' W 013°57'612.5
2018-Feb-14 02:34N 27°36' W 014°02'212.5
2018-Feb-14 02:26N 27°35' W 014°03'512.6
2018-Feb-14 02:00N 27°31' W 014°07'10212.8
2018-Feb-13 18:03N 26°20' W 015°29'112.9
2018-Feb-13 18:00N 26°20' W 015°30'613.0
2018-Feb-13 17:30N 26°15' W 015°34'712.9
2018-Feb-13 17:00N 26°11' W 015°40'612.6
2018-Feb-13 16:30N 26°06' W 015°45'612.4
2018-Feb-13 16:00N 26°01' W 015°50'713.4
2018-Feb-13 15:31N 25°57' W 015°55'713.0
2018-Feb-13 15:01N 25°52' W 015°60'612.9
2018-Feb-13 14:30N 25°48' W 016°05'  

Dump ship's entire track history